Main page
Satellite images 10-day forecastsClimateMarine weather Cyclones Lightning AirportsFAQ Newsletter About
Weather : Europe Africa North America South America Asia Australia-Oceania Others
Languages Contact

Rovaniemi, Finland

Rovaniemi Airport

latitude: 66-34N, longitude: 025-50E, elevation: 197 m


METAR: EFRO 072350Z AUTO 01004KT 9999 -RA OVC050 09/09 Q0997
TAF: EFRO 072324Z 0800/0824 04005KT CAVOK PROB30 0800/0808 4000 BR

Time: 03:03 (00:03 UTC)

Current weather observation

The report was made 13 minutes ago, at 23:50 UTC
Wind 4 kt from the North
Temperature 9°C
Humidity 100%
Pressure 997 hPa
Visibility 10 km or more
Overcast at a height of 5000 ft
light rain

Change units

Forecast

The report was made 39 minutes ago, at 23:24 UTC
Forecast valid from 08 at 00 UTC to 08 at 24 UTC
Wind 5 kt from the Northeast
Visibility 10 km or more
no clouds below 1500 m and no cumulonimbus
Probability 30%
from 08 at 00 UTC to 08 at 08 UTC
Visibility: 4000 m
mist
The information on this site is subject to a disclaimer
Weather : Europe Africa North America South America Asia Australia-Oceania Others
Satellite images 10-day forecastsClimateMarine weather Cyclones Lightning AirportsFAQ Languages Contact Newsletter About